sensor_id;sensor_type;location;lat;lon;timestamp;P1;durP1;ratioP1;P2;durP2;ratioP2
64667;SDS011;51077;42.716;23.344;2023-07-13T00:00:41;7.60;;;5.10;;
64667;SDS011;51077;42.716;23.344;2023-07-13T00:03:07;7.63;;;4.60;;
64667;SDS011;51077;42.716;23.344;2023-07-13T00:05:33;9.93;;;5.13;;
64667;SDS011;51077;42.716;23.344;2023-07-13T00:07:58;8.47;;;4.87;;
64667;SDS011;51077;42.716;23.344;2023-07-13T00:10:24;8.27;;;4.63;;
64667;SDS011;51077;42.716;23.344;2023-07-13T00:12:49;10.20;;;4.63;;
64667;SDS011;51077;42.716;23.344;2023-07-13T00:15:18;8.02;;;4.50;;
64667;SDS011;51077;42.716;23.344;2023-07-13T00:17:48;7.15;;;4.65;;
64667;SDS011;51077;42.716;23.344;2023-07-13T00:20:16;7.78;;;4.88;;
64667;SDS011;51077;42.716;23.344;2023-07-13T00:22:42;8.10;;;4.77;;
64667;SDS011;51077;42.716;23.344;2023-07-13T00:25:09;9.27;;;4.80;;
64667;SDS011;51077;42.716;23.344;2023-07-13T00:27:36;7.15;;;4.00;;
64667;SDS011;51077;42.716;23.344;2023-07-13T00:30:02;7.40;;;4.53;;
64667;SDS011;51077;42.716;23.344;2023-07-13T00:32:28;5.68;;;4.47;;
64667;SDS011;51077;42.716;23.344;2023-07-13T00:34:54;5.53;;;4.20;;
64667;SDS011;51077;42.716;23.344;2023-07-13T00:37:21;7.68;;;5.00;;
64667;SDS011;51077;42.716;23.344;2023-07-13T00:39:47;8.83;;;4.53;;
64667;SDS011;51077;42.716;23.344;2023-07-13T00:42:12;7.13;;;4.27;;
64667;SDS011;51077;42.716;23.344;2023-07-13T00:44:37;7.53;;;4.53;;
64667;SDS011;51077;42.716;23.344;2023-07-13T00:47:04;7.18;;;4.10;;
64667;SDS011;51077;42.716;23.344;2023-07-13T00:49:30;7.20;;;4.20;;
64667;SDS011;51077;42.716;23.344;2023-07-13T00:52:00;8.05;;;4.70;;
64667;SDS011;51077;42.716;23.344;2023-07-13T00:54:29;8.70;;;4.22;;
64667;SDS011;51077;42.716;23.344;2023-07-13T00:56:59;7.30;;;4.95;;
64667;SDS011;51077;42.716;23.344;2023-07-13T00:59:28;8.88;;;4.47;;
64667;SDS011;51077;42.716;23.344;2023-07-13T01:01:54;7.30;;;4.30;;
64667;SDS011;51077;42.716;23.344;2023-07-13T01:04:19;10.10;;;4.83;;
64667;SDS011;51077;42.716;23.344;2023-07-13T01:06:45;7.27;;;4.53;;
64667;SDS011;51077;42.716;23.344;2023-07-13T01:09:12;6.22;;;4.47;;
64667;SDS011;51077;42.716;23.344;2023-07-13T01:11:41;5.97;;;4.70;;
64667;SDS011;51077;42.716;23.344;2023-07-13T01:14:07;10.30;;;4.78;;
64667;SDS011;51077;42.716;23.344;2023-07-13T01:16:33;8.20;;;5.03;;
64667;SDS011;51077;42.716;23.344;2023-07-13T01:19:00;7.97;;;4.45;;
64667;SDS011;51077;42.716;23.344;2023-07-13T01:21:28;8.68;;;4.82;;
64667;SDS011;51077;42.716;23.344;2023-07-13T01:23:57;8.35;;;4.85;;
64667;SDS011;51077;42.716;23.344;2023-07-13T01:26:22;10.67;;;4.90;;
64667;SDS011;51077;42.716;23.344;2023-07-13T01:28:48;9.00;;;4.83;;
64667;SDS011;51077;42.716;23.344;2023-07-13T01:31:13;6.37;;;4.00;;
64667;SDS011;51077;42.716;23.344;2023-07-13T01:33:39;6.93;;;4.97;;
64667;SDS011;51077;42.716;23.344;2023-07-13T01:36:06;7.85;;;4.60;;
64667;SDS011;51077;42.716;23.344;2023-07-13T01:38:32;9.68;;;4.82;;
64667;SDS011;51077;42.716;23.344;2023-07-13T01:40:58;9.03;;;5.00;;
64667;SDS011;51077;42.716;23.344;2023-07-13T01:43:24;7.07;;;4.63;;
64667;SDS011;51077;42.716;23.344;2023-07-13T01:45:50;7.27;;;4.60;;
64667;SDS011;51077;42.716;23.344;2023-07-13T01:48:15;6.37;;;4.23;;
64667;SDS011;51077;42.716;23.344;2023-07-13T01:50:41;7.37;;;4.93;;
64667;SDS011;51077;42.716;23.344;2023-07-13T01:53:06;6.47;;;4.33;;
64667;SDS011;51077;42.716;23.344;2023-07-13T01:55:32;6.97;;;4.70;;
64667;SDS011;51077;42.716;23.344;2023-07-13T01:57:58;7.38;;;4.60;;
64667;SDS011;51077;42.716;23.344;2023-07-13T02:00:24;7.97;;;4.50;;
64667;SDS011;51077;42.716;23.344;2023-07-13T02:02:50;8.60;;;5.10;;
64667;SDS011;51077;42.716;23.344;2023-07-13T02:05:15;5.47;;;4.10;;
64667;SDS011;51077;42.716;23.344;2023-07-13T02:07:41;8.32;;;5.00;;
64667;SDS011;51077;42.716;23.344;2023-07-13T02:10:08;7.47;;;5.07;;
64667;SDS011;51077;42.716;23.344;2023-07-13T02:12:35;5.88;;;4.55;;
64667;SDS011;51077;42.716;23.344;2023-07-13T02:15:01;6.60;;;4.50;;
64667;SDS011;51077;42.716;23.344;2023-07-13T02:17:26;7.55;;;5.22;;
64667;SDS011;51077;42.716;23.344;2023-07-13T02:19:52;7.03;;;4.80;;
64667;SDS011;51077;42.716;23.344;2023-07-13T02:22:18;5.97;;;4.00;;
64667;SDS011;51077;42.716;23.344;2023-07-13T02:24:43;11.73;;;4.47;;
64667;SDS011;51077;42.716;23.344;2023-07-13T02:27:09;6.30;;;4.67;;
64667;SDS011;51077;42.716;23.344;2023-07-13T02:29:34;6.33;;;4.17;;
64667;SDS011;51077;42.716;23.344;2023-07-13T02:31:59;6.70;;;4.67;;
64667;SDS011;51077;42.716;23.344;2023-07-13T02:34:25;5.83;;;4.60;;
64667;SDS011;51077;42.716;23.344;2023-07-13T02:36:50;6.10;;;4.60;;
64667;SDS011;51077;42.716;23.344;2023-07-13T02:39:15;9.57;;;4.60;;
64667;SDS011;51077;42.716;23.344;2023-07-13T02:41:41;6.33;;;4.90;;
64667;SDS011;51077;42.716;23.344;2023-07-13T02:44:06;6.93;;;4.37;;
64667;SDS011;51077;42.716;23.344;2023-07-13T02:46:34;6.15;;;4.95;;
64667;SDS011;51077;42.716;23.344;2023-07-13T02:49:01;7.85;;;4.40;;
64667;SDS011;51077;42.716;23.344;2023-07-13T02:51:27;7.05;;;5.00;;
64667;SDS011;51077;42.716;23.344;2023-07-13T02:53:53;6.28;;;4.90;;
64667;SDS011;51077;42.716;23.344;2023-07-13T02:56:22;8.90;;;5.10;;
64667;SDS011;51077;42.716;23.344;2023-07-13T02:58:48;8.65;;;5.05;;
64667;SDS011;51077;42.716;23.344;2023-07-13T03:01:14;7.80;;;5.03;;
64667;SDS011;51077;42.716;23.344;2023-07-13T03:03:43;7.10;;;4.93;;
64667;SDS011;51077;42.716;23.344;2023-07-13T03:06:12;7.80;;;4.72;;
64667;SDS011;51077;42.716;23.344;2023-07-13T03:08:39;6.55;;;4.72;;
64667;SDS011;51077;42.716;23.344;2023-07-13T03:11:10;7.40;;;4.50;;
64667;SDS011;51077;42.716;23.344;2023-07-13T03:13:38;6.60;;;4.60;;
64667;SDS011;51077;42.716;23.344;2023-07-13T03:16:05;7.53;;;4.90;;
64667;SDS011;51077;42.716;23.344;2023-07-13T03:18:31;6.60;;;4.78;;
64667;SDS011;51077;42.716;23.344;2023-07-13T03:20:57;5.97;;;4.73;;
64667;SDS011;51077;42.716;23.344;2023-07-13T03:23:22;6.17;;;4.40;;
64667;SDS011;51077;42.716;23.344;2023-07-13T03:25:48;8.73;;;4.85;;
64667;SDS011;51077;42.716;23.344;2023-07-13T03:28:14;8.60;;;5.50;;
64667;SDS011;51077;42.716;23.344;2023-07-13T03:30:40;9.15;;;4.90;;
64667;SDS011;51077;42.716;23.344;2023-07-13T03:33:06;6.70;;;5.22;;
64667;SDS011;51077;42.716;23.344;2023-07-13T03:35:32;7.00;;;4.90;;
64667;SDS011;51077;42.716;23.344;2023-07-13T03:37:58;6.17;;;4.87;;
64667;SDS011;51077;42.716;23.344;2023-07-13T03:40:24;8.52;;;5.20;;
64667;SDS011;51077;42.716;23.344;2023-07-13T03:42:51;11.52;;;5.47;;
64667;SDS011;51077;42.716;23.344;2023-07-13T03:45:16;8.77;;;5.13;;
64667;SDS011;51077;42.716;23.344;2023-07-13T03:47:42;6.63;;;4.93;;
64667;SDS011;51077;42.716;23.344;2023-07-13T03:50:07;6.53;;;5.17;;
64667;SDS011;51077;42.716;23.344;2023-07-13T03:52:33;7.50;;;5.30;;
64667;SDS011;51077;42.716;23.344;2023-07-13T03:54:58;10.17;;;6.40;;
64667;SDS011;51077;42.716;23.344;2023-07-13T03:57:24;9.20;;;5.87;;
64667;SDS011;51077;42.716;23.344;2023-07-13T03:59:49;9.43;;;5.47;;
64667;SDS011;51077;42.716;23.344;2023-07-13T04:02:14;6.87;;;5.07;;
64667;SDS011;51077;42.716;23.344;2023-07-13T04:04:40;10.60;;;5.47;;
64667;SDS011;51077;42.716;23.344;2023-07-13T04:07:06;7.23;;;5.13;;
64667;SDS011;51077;42.716;23.344;2023-07-13T04:09:33;9.23;;;5.22;;
64667;SDS011;51077;42.716;23.344;2023-07-13T04:11:58;8.10;;;5.57;;
64667;SDS011;51077;42.716;23.344;2023-07-13T04:14:24;9.13;;;5.27;;
64667;SDS011;51077;42.716;23.344;2023-07-13T04:16:49;10.17;;;5.87;;
64667;SDS011;51077;42.716;23.344;2023-07-13T04:19:15;7.40;;;5.10;;
64667;SDS011;51077;42.716;23.344;2023-07-13T04:21:40;7.57;;;5.50;;
64667;SDS011;51077;42.716;23.344;2023-07-13T04:24:05;8.77;;;5.30;;
64667;SDS011;51077;42.716;23.344;2023-07-13T04:26:32;8.50;;;5.57;;
64667;SDS011;51077;42.716;23.344;2023-07-13T04:29:00;7.78;;;5.45;;
64667;SDS011;51077;42.716;23.344;2023-07-13T04:31:28;11.20;;;5.32;;
64667;SDS011;51077;42.716;23.344;2023-07-13T04:33:53;9.50;;;6.40;;
64667;SDS011;51077;42.716;23.344;2023-07-13T04:36:18;11.40;;;5.20;;
64667;SDS011;51077;42.716;23.344;2023-07-13T04:38:44;10.90;;;5.67;;
64667;SDS011;51077;42.716;23.344;2023-07-13T04:41:10;8.87;;;5.07;;
64667;SDS011;51077;42.716;23.344;2023-07-13T04:43:35;9.57;;;5.30;;
64667;SDS011;51077;42.716;23.344;2023-07-13T04:46:05;7.87;;;5.60;;
64667;SDS011;51077;42.716;23.344;2023-07-13T04:48:32;10.77;;;5.57;;
64667;SDS011;51077;42.716;23.344;2023-07-13T04:50:59;11.23;;;5.38;;
64667;SDS011;51077;42.716;23.344;2023-07-13T04:53:25;10.70;;;5.97;;
64667;SDS011;51077;42.716;23.344;2023-07-13T04:55:51;8.57;;;5.38;;
64667;SDS011;51077;42.716;23.344;2023-07-13T04:58:17;7.47;;;5.00;;
64667;SDS011;51077;42.716;23.344;2023-07-13T05:00:43;10.37;;;6.00;;
64667;SDS011;51077;42.716;23.344;2023-07-13T05:03:08;15.23;;;5.53;;
64667;SDS011;51077;42.716;23.344;2023-07-13T05:05:33;8.43;;;5.50;;
64667;SDS011;51077;42.716;23.344;2023-07-13T05:07:59;12.53;;;5.50;;
64667;SDS011;51077;42.716;23.344;2023-07-13T05:10:24;7.97;;;4.47;;
64667;SDS011;51077;42.716;23.344;2023-07-13T05:12:50;8.47;;;5.10;;
64667;SDS011;51077;42.716;23.344;2023-07-13T05:15:15;10.23;;;5.80;;
64667;SDS011;51077;42.716;23.344;2023-07-13T05:17:45;8.95;;;5.50;;
64667;SDS011;51077;42.716;23.344;2023-07-13T05:20:11;10.50;;;6.27;;
64667;SDS011;51077;42.716;23.344;2023-07-13T05:22:36;7.43;;;5.00;;
64667;SDS011;51077;42.716;23.344;2023-07-13T05:25:04;10.37;;;5.63;;
64667;SDS011;51077;42.716;23.344;2023-07-13T05:27:30;9.00;;;4.90;;
64667;SDS011;51077;42.716;23.344;2023-07-13T05:29:55;9.53;;;5.47;;
64667;SDS011;51077;42.716;23.344;2023-07-13T05:32:21;9.47;;;5.63;;
64667;SDS011;51077;42.716;23.344;2023-07-13T05:34:46;8.50;;;5.73;;
64667;SDS011;51077;42.716;23.344;2023-07-13T05:37:12;9.20;;;5.70;;
64667;SDS011;51077;42.716;23.344;2023-07-13T05:39:37;7.83;;;5.10;;
64667;SDS011;51077;42.716;23.344;2023-07-13T05:42:02;10.97;;;5.77;;
64667;SDS011;51077;42.716;23.344;2023-07-13T05:44:28;8.93;;;6.23;;
64667;SDS011;51077;42.716;23.344;2023-07-13T05:46:54;9.30;;;5.30;;
64667;SDS011;51077;42.716;23.344;2023-07-13T05:49:21;11.15;;;5.50;;
64667;SDS011;51077;42.716;23.344;2023-07-13T05:51:47;9.93;;;5.97;;
64667;SDS011;51077;42.716;23.344;2023-07-13T05:54:12;11.97;;;5.93;;
64667;SDS011;51077;42.716;23.344;2023-07-13T05:56:38;9.67;;;5.63;;
64667;SDS011;51077;42.716;23.344;2023-07-13T05:59:03;9.80;;;6.33;;
64667;SDS011;51077;42.716;23.344;2023-07-13T06:01:29;12.67;;;6.57;;
64667;SDS011;51077;42.716;23.344;2023-07-13T06:03:56;10.90;;;6.93;;
64667;SDS011;51077;42.716;23.344;2023-07-13T06:06:21;12.27;;;6.77;;
64667;SDS011;51077;42.716;23.344;2023-07-13T06:08:47;9.47;;;6.30;;
64667;SDS011;51077;42.716;23.344;2023-07-13T06:11:13;12.13;;;7.10;;
64667;SDS011;51077;42.716;23.344;2023-07-13T06:13:40;10.57;;;6.65;;
64667;SDS011;51077;42.716;23.344;2023-07-13T06:16:06;8.93;;;6.17;;
64667;SDS011;51077;42.716;23.344;2023-07-13T06:18:32;9.50;;;6.63;;
64667;SDS011;51077;42.716;23.344;2023-07-13T06:20:58;10.30;;;6.35;;
64667;SDS011;51077;42.716;23.344;2023-07-13T06:23:24;10.50;;;6.30;;
64667;SDS011;51077;42.716;23.344;2023-07-13T06:25:50;13.93;;;6.47;;
64667;SDS011;51077;42.716;23.344;2023-07-13T06:28:15;9.00;;;5.93;;
64667;SDS011;51077;42.716;23.344;2023-07-13T06:30:40;10.83;;;6.37;;
64667;SDS011;51077;42.716;23.344;2023-07-13T06:33:06;13.37;;;6.17;;
64667;SDS011;51077;42.716;23.344;2023-07-13T06:35:32;12.40;;;6.43;;
64667;SDS011;51077;42.716;23.344;2023-07-13T06:37:57;12.13;;;6.20;;
64667;SDS011;51077;42.716;23.344;2023-07-13T06:40:22;15.53;;;6.77;;
64667;SDS011;51077;42.716;23.344;2023-07-13T06:42:48;10.43;;;6.60;;
64667;SDS011;51077;42.716;23.344;2023-07-13T06:45:13;10.83;;;6.53;;
64667;SDS011;51077;42.716;23.344;2023-07-13T06:47:39;14.13;;;6.53;;
64667;SDS011;51077;42.716;23.344;2023-07-13T06:50:04;10.63;;;6.57;;
64667;SDS011;51077;42.716;23.344;2023-07-13T06:52:30;13.33;;;6.63;;
64667;SDS011;51077;42.716;23.344;2023-07-13T06:54:55;12.87;;;6.40;;
64667;SDS011;51077;42.716;23.344;2023-07-13T06:57:21;8.83;;;6.53;;
64667;SDS011;51077;42.716;23.344;2023-07-13T06:59:46;13.27;;;6.70;;
64667;SDS011;51077;42.716;23.344;2023-07-13T07:02:12;15.20;;;6.77;;
64667;SDS011;51077;42.716;23.344;2023-07-13T07:04:37;11.73;;;6.33;;
64667;SDS011;51077;42.716;23.344;2023-07-13T07:07:03;11.70;;;5.87;;
64667;SDS011;51077;42.716;23.344;2023-07-13T07:09:28;12.40;;;5.97;;
64667;SDS011;51077;42.716;23.344;2023-07-13T07:11:55;10.00;;;5.80;;
64667;SDS011;51077;42.716;23.344;2023-07-13T07:14:20;11.13;;;6.20;;
64667;SDS011;51077;42.716;23.344;2023-07-13T07:16:46;12.80;;;6.40;;
64667;SDS011;51077;42.716;23.344;2023-07-13T07:19:11;13.30;;;6.23;;
64667;SDS011;51077;42.716;23.344;2023-07-13T07:21:37;9.43;;;6.30;;
64667;SDS011;51077;42.716;23.344;2023-07-13T07:24:02;9.73;;;6.43;;
64667;SDS011;51077;42.716;23.344;2023-07-13T07:26:29;13.18;;;6.50;;
64667;SDS011;51077;42.716;23.344;2023-07-13T07:28:55;13.63;;;5.83;;
64667;SDS011;51077;42.716;23.344;2023-07-13T07:31:20;10.43;;;5.60;;
64667;SDS011;51077;42.716;23.344;2023-07-13T07:33:45;10.70;;;5.70;;
64667;SDS011;51077;42.716;23.344;2023-07-13T07:36:11;10.03;;;5.10;;
64667;SDS011;51077;42.716;23.344;2023-07-13T07:38:37;9.17;;;6.13;;
64667;SDS011;51077;42.716;23.344;2023-07-13T07:41:03;14.83;;;6.10;;
64667;SDS011;51077;42.716;23.344;2023-07-13T07:43:30;8.87;;;6.10;;
64667;SDS011;51077;42.716;23.344;2023-07-13T07:45:56;12.63;;;6.20;;
64667;SDS011;51077;42.716;23.344;2023-07-13T07:48:21;11.63;;;6.33;;
64667;SDS011;51077;42.716;23.344;2023-07-13T07:50:47;13.80;;;6.20;;
64667;SDS011;51077;42.716;23.344;2023-07-13T07:53:12;14.17;;;6.57;;
64667;SDS011;51077;42.716;23.344;2023-07-13T07:55:38;9.10;;;5.70;;
64667;SDS011;51077;42.716;23.344;2023-07-13T07:58:04;9.30;;;6.07;;
64667;SDS011;51077;42.716;23.344;2023-07-13T08:00:30;12.47;;;6.23;;
64667;SDS011;51077;42.716;23.344;2023-07-13T08:02:57;8.97;;;6.13;;
64667;SDS011;51077;42.716;23.344;2023-07-13T08:05:23;12.63;;;5.73;;
64667;SDS011;51077;42.716;23.344;2023-07-13T08:07:48;9.53;;;6.10;;
64667;SDS011;51077;42.716;23.344;2023-07-13T08:10:13;11.80;;;5.87;;
64667;SDS011;51077;42.716;23.344;2023-07-13T08:12:39;8.70;;;6.23;;
64667;SDS011;51077;42.716;23.344;2023-07-13T08:15:06;12.10;;;5.87;;
64667;SDS011;51077;42.716;23.344;2023-07-13T08:17:34;8.43;;;5.80;;
64667;SDS011;51077;42.716;23.344;2023-07-13T08:20:00;11.23;;;5.67;;
64667;SDS011;51077;42.716;23.344;2023-07-13T08:22:26;7.93;;;5.90;;
64667;SDS011;51077;42.716;23.344;2023-07-13T08:24:52;11.37;;;5.60;;
64667;SDS011;51077;42.716;23.344;2023-07-13T08:27:21;13.70;;;6.10;;
64667;SDS011;51077;42.716;23.344;2023-07-13T08:29:48;9.63;;;5.50;;
64667;SDS011;51077;42.716;23.344;2023-07-13T08:32:14;9.27;;;5.50;;
64667;SDS011;51077;42.716;23.344;2023-07-13T08:34:40;9.47;;;5.37;;
64667;SDS011;51077;42.716;23.344;2023-07-13T08:37:06;11.47;;;5.47;;
64667;SDS011;51077;42.716;23.344;2023-07-13T08:39:32;8.93;;;5.67;;
64667;SDS011;51077;42.716;23.344;2023-07-13T08:42:02;9.40;;;5.00;;
64667;SDS011;51077;42.716;23.344;2023-07-13T08:47:03;10.40;;;5.67;;
64667;SDS011;51077;42.716;23.344;2023-07-13T08:49:30;7.67;;;5.30;;
64667;SDS011;51077;42.716;23.344;2023-07-13T08:52:01;8.63;;;4.93;;
64667;SDS011;51077;42.716;23.344;2023-07-13T08:54:32;7.43;;;4.80;;
64667;SDS011;51077;42.716;23.344;2023-07-13T08:57:01;11.23;;;4.73;;
64667;SDS011;51077;42.716;23.344;2023-07-13T08:59:37;6.33;;;4.90;;
64667;SDS011;51077;42.716;23.344;2023-07-13T09:10:45;9.47;;;4.83;;
64667;SDS011;51077;42.716;23.344;2023-07-13T09:16:02;10.10;;;4.93;;
64667;SDS011;51077;42.716;23.344;2023-07-13T09:18:30;13.63;;;5.27;;
64667;SDS011;51077;42.716;23.344;2023-07-13T09:21:03;11.87;;;5.83;;
64667;SDS011;51077;42.716;23.344;2023-07-13T09:23:33;11.30;;;5.60;;
64667;SDS011;51077;42.716;23.344;2023-07-13T09:26:02;9.57;;;5.10;;
64667;SDS011;51077;42.716;23.344;2023-07-13T09:28:36;9.60;;;4.77;;
64667;SDS011;51077;42.716;23.344;2023-07-13T09:33:37;8.90;;;6.10;;
64667;SDS011;51077;42.716;23.344;2023-07-13T09:36:14;8.80;;;5.10;;
64667;SDS011;51077;42.716;23.344;2023-07-13T09:38:44;7.60;;;5.10;;
64667;SDS011;51077;42.716;23.344;2023-07-13T09:41:18;11.17;;;5.20;;
64667;SDS011;51077;42.716;23.344;2023-07-13T09:46:33;8.50;;;5.27;;
64667;SDS011;51077;42.716;23.344;2023-07-13T09:48:59;7.67;;;4.87;;
64667;SDS011;51077;42.716;23.344;2023-07-13T09:51:24;8.33;;;5.20;;
64667;SDS011;51077;42.716;23.344;2023-07-13T09:53:50;8.80;;;5.83;;
64667;SDS011;51077;42.716;23.344;2023-07-13T09:56:48;12.17;;;5.70;;
64667;SDS011;51077;42.716;23.344;2023-07-13T09:59:17;11.80;;;5.37;;
64667;SDS011;51077;42.716;23.344;2023-07-13T10:01:45;10.93;;;5.17;;
64667;SDS011;51077;42.716;23.344;2023-07-13T10:04:11;8.13;;;4.70;;
64667;SDS011;51077;42.716;23.344;2023-07-13T10:06:38;7.00;;;4.60;;
64667;SDS011;51077;42.716;23.344;2023-07-13T10:09:07;9.73;;;4.60;;
64667;SDS011;51077;42.716;23.344;2023-07-13T10:11:34;8.40;;;4.83;;
64667;SDS011;51077;42.716;23.344;2023-07-13T10:14:01;10.83;;;5.17;;
64667;SDS011;51077;42.716;23.344;2023-07-13T10:16:34;5.97;;;4.77;;
64667;SDS011;51077;42.716;23.344;2023-07-13T10:21:34;7.73;;;4.53;;
64667;SDS011;51077;42.716;23.344;2023-07-13T10:26:32;6.67;;;4.23;;
64667;SDS011;51077;42.716;23.344;2023-07-13T10:29:03;6.83;;;4.03;;
64667;SDS011;51077;42.716;23.344;2023-07-13T10:31:33;8.67;;;4.10;;
64667;SDS011;51077;42.716;23.344;2023-07-13T10:34:02;5.97;;;4.40;;
64667;SDS011;51077;42.716;23.344;2023-07-13T10:36:34;7.70;;;4.37;;
64667;SDS011;51077;42.716;23.344;2023-07-13T10:39:05;8.00;;;3.43;;
64667;SDS011;51077;42.716;23.344;2023-07-13T10:41:35;6.97;;;3.67;;
64667;SDS011;51077;42.716;23.344;2023-07-13T10:44:05;6.77;;;3.67;;
64667;SDS011;51077;42.716;23.344;2023-07-13T10:46:39;3.60;;;2.63;;
64667;SDS011;51077;42.716;23.344;2023-07-13T10:49:07;7.70;;;3.13;;
64667;SDS011;51077;42.716;23.344;2023-07-13T10:51:35;6.17;;;3.20;;
64667;SDS011;51077;42.716;23.344;2023-07-13T10:54:21;5.20;;;3.17;;
64667;SDS011;51077;42.716;23.344;2023-07-13T10:57:06;8.23;;;3.50;;
64667;SDS011;51077;42.716;23.344;2023-07-13T10:59:41;7.47;;;3.40;;
64667;SDS011;51077;42.716;23.344;2023-07-13T11:04:52;4.83;;;3.27;;
64667;SDS011;51077;42.716;23.344;2023-07-13T11:07:21;7.37;;;3.53;;
64667;SDS011;51077;42.716;23.344;2023-07-13T11:09:54;6.07;;;3.40;;
64667;SDS011;51077;42.716;23.344;2023-07-13T11:22:45;7.30;;;3.10;;
64667;SDS011;51077;42.716;23.344;2023-07-13T11:33:10;5.83;;;3.50;;
64667;SDS011;51077;42.716;23.344;2023-07-13T11:35:59;5.83;;;3.30;;
64667;SDS011;51077;42.716;23.344;2023-07-13T11:38:36;6.47;;;3.60;;
64667;SDS011;51077;42.716;23.344;2023-07-13T11:41:03;6.97;;;3.40;;
64667;SDS011;51077;42.716;23.344;2023-07-13T11:43:32;6.77;;;4.20;;
64667;SDS011;51077;42.716;23.344;2023-07-13T11:46:00;4.60;;;3.20;;
64667;SDS011;51077;42.716;23.344;2023-07-13T11:48:37;5.73;;;3.30;;
64667;SDS011;51077;42.716;23.344;2023-07-13T11:51:06;6.57;;;3.10;;
64667;SDS011;51077;42.716;23.344;2023-07-13T11:53:44;6.00;;;2.83;;
64667;SDS011;51077;42.716;23.344;2023-07-13T11:56:12;6.27;;;3.07;;
64667;SDS011;51077;42.716;23.344;2023-07-13T11:58:38;9.33;;;3.37;;
64667;SDS011;51077;42.716;23.344;2023-07-13T12:01:04;6.67;;;3.33;;
64667;SDS011;51077;42.716;23.344;2023-07-13T12:03:30;6.80;;;3.43;;
64667;SDS011;51077;42.716;23.344;2023-07-13T12:06:06;8.00;;;3.40;;
64667;SDS011;51077;42.716;23.344;2023-07-13T12:08:48;6.67;;;3.90;;
64667;SDS011;51077;42.716;23.344;2023-07-13T12:11:17;5.67;;;3.60;;
64667;SDS011;51077;42.716;23.344;2023-07-13T12:13:43;6.47;;;3.10;;
64667;SDS011;51077;42.716;23.344;2023-07-13T12:18:53;7.43;;;3.43;;
64667;SDS011;51077;42.716;23.344;2023-07-13T12:21:22;5.80;;;3.77;;
64667;SDS011;51077;42.716;23.344;2023-07-13T12:23:54;7.47;;;3.60;;
64667;SDS011;51077;42.716;23.344;2023-07-13T12:26:20;5.27;;;3.87;;
64667;SDS011;51077;42.716;23.344;2023-07-13T12:28:49;6.10;;;3.77;;
64667;SDS011;51077;42.716;23.344;2023-07-13T12:33:57;7.00;;;3.70;;
64667;SDS011;51077;42.716;23.344;2023-07-13T12:36:33;6.77;;;3.73;;
64667;SDS011;51077;42.716;23.344;2023-07-13T12:39:04;7.27;;;3.43;;
64667;SDS011;51077;42.716;23.344;2023-07-13T12:41:51;6.23;;;3.60;;
64667;SDS011;51077;42.716;23.344;2023-07-13T12:44:21;8.10;;;4.03;;
64667;SDS011;51077;42.716;23.344;2023-07-13T12:47:05;10.17;;;3.27;;
64667;SDS011;51077;42.716;23.344;2023-07-13T12:49:39;7.20;;;3.30;;
64667;SDS011;51077;42.716;23.344;2023-07-13T12:52:12;7.90;;;3.23;;
64667;SDS011;51077;42.716;23.344;2023-07-13T12:54:40;9.87;;;3.23;;
64667;SDS011;51077;42.716;23.344;2023-07-13T12:57:08;5.57;;;3.60;;
64667;SDS011;51077;42.716;23.344;2023-07-13T12:59:41;7.13;;;3.37;;
64667;SDS011;51077;42.716;23.344;2023-07-13T13:02:26;7.17;;;3.67;;
64667;SDS011;51077;42.716;23.344;2023-07-13T13:04:56;5.43;;;3.43;;
64667;SDS011;51077;42.716;23.344;2023-07-13T13:07:23;11.07;;;4.20;;
64667;SDS011;51077;42.716;23.344;2023-07-13T13:09:49;7.57;;;3.37;;
64667;SDS011;51077;42.716;23.344;2023-07-13T13:12:14;8.13;;;3.67;;
64667;SDS011;51077;42.716;23.344;2023-07-13T13:14:42;9.50;;;3.80;;
64667;SDS011;51077;42.716;23.344;2023-07-13T13:17:27;4.40;;;2.90;;
64667;SDS011;51077;42.716;23.344;2023-07-13T13:19:54;9.00;;;3.73;;
64667;SDS011;51077;42.716;23.344;2023-07-13T13:22:20;6.23;;;3.27;;
64667;SDS011;51077;42.716;23.344;2023-07-13T13:24:45;6.67;;;3.60;;
64667;SDS011;51077;42.716;23.344;2023-07-13T13:27:19;8.53;;;3.70;;
64667;SDS011;51077;42.716;23.344;2023-07-13T13:29:46;9.77;;;3.40;;
64667;SDS011;51077;42.716;23.344;2023-07-13T13:32:14;7.67;;;3.50;;
64667;SDS011;51077;42.716;23.344;2023-07-13T13:34:40;5.80;;;3.90;;
64667;SDS011;51077;42.716;23.344;2023-07-13T13:37:15;9.13;;;3.67;;
64667;SDS011;51077;42.716;23.344;2023-07-13T13:39:43;7.30;;;3.33;;
64667;SDS011;51077;42.716;23.344;2023-07-13T13:42:09;11.50;;;3.93;;
64667;SDS011;51077;42.716;23.344;2023-07-13T13:44:35;10.13;;;4.00;;
64667;SDS011;51077;42.716;23.344;2023-07-13T13:47:00;7.33;;;3.13;;
64667;SDS011;51077;42.716;23.344;2023-07-13T13:49:27;8.47;;;3.73;;
64667;SDS011;51077;42.716;23.344;2023-07-13T13:51:54;9.33;;;3.97;;
64667;SDS011;51077;42.716;23.344;2023-07-13T13:54:20;7.00;;;3.77;;
64667;SDS011;51077;42.716;23.344;2023-07-13T13:56:48;7.37;;;3.30;;
64667;SDS011;51077;42.716;23.344;2023-07-13T13:59:15;7.50;;;3.30;;
64667;SDS011;51077;42.716;23.344;2023-07-13T14:01:42;8.90;;;3.20;;
64667;SDS011;51077;42.716;23.344;2023-07-13T14:04:16;6.03;;;3.20;;
64667;SDS011;51077;42.716;23.344;2023-07-13T14:06:44;7.63;;;3.83;;
64667;SDS011;51077;42.716;23.344;2023-07-13T14:09:11;7.90;;;3.70;;
64667;SDS011;51077;42.716;23.344;2023-07-13T14:11:38;6.73;;;3.20;;
64667;SDS011;51077;42.716;23.344;2023-07-13T14:14:08;8.30;;;3.10;;
64667;SDS011;51077;42.716;23.344;2023-07-13T14:16:39;11.35;;;3.83;;
64667;SDS011;51077;42.716;23.344;2023-07-13T14:19:07;8.30;;;2.97;;
64667;SDS011;51077;42.716;23.344;2023-07-13T14:21:36;7.67;;;3.17;;
64667;SDS011;51077;42.716;23.344;2023-07-13T14:24:02;8.30;;;4.10;;
64667;SDS011;51077;42.716;23.344;2023-07-13T14:26:28;7.43;;;4.00;;
64667;SDS011;51077;42.716;23.344;2023-07-13T14:28:57;7.27;;;3.30;;
64667;SDS011;51077;42.716;23.344;2023-07-13T14:31:25;7.83;;;3.43;;
64667;SDS011;51077;42.716;23.344;2023-07-13T14:33:53;6.37;;;3.60;;
64667;SDS011;51077;42.716;23.344;2023-07-13T14:36:29;7.53;;;3.13;;
64667;SDS011;51077;42.716;23.344;2023-07-13T14:38:56;7.87;;;3.20;;
64667;SDS011;51077;42.716;23.344;2023-07-13T14:41:22;9.30;;;3.90;;
64667;SDS011;51077;42.716;23.344;2023-07-13T14:43:48;7.40;;;3.67;;
64667;SDS011;51077;42.716;23.344;2023-07-13T14:49:04;11.07;;;4.00;;
64667;SDS011;51077;42.716;23.344;2023-07-13T14:51:35;7.00;;;3.53;;
64667;SDS011;51077;42.716;23.344;2023-07-13T14:54:02;8.60;;;3.70;;
64667;SDS011;51077;42.716;23.344;2023-07-13T14:56:29;8.80;;;3.53;;
64667;SDS011;51077;42.716;23.344;2023-07-13T14:58:55;7.47;;;3.30;;
64667;SDS011;51077;42.716;23.344;2023-07-13T15:01:21;8.83;;;3.73;;
64667;SDS011;51077;42.716;23.344;2023-07-13T15:03:48;7.83;;;3.87;;
64667;SDS011;51077;42.716;23.344;2023-07-13T15:06:16;9.23;;;3.90;;
64667;SDS011;51077;42.716;23.344;2023-07-13T15:08:42;12.80;;;4.00;;
64667;SDS011;51077;42.716;23.344;2023-07-13T15:11:07;7.67;;;3.73;;
64667;SDS011;51077;42.716;23.344;2023-07-13T15:13:36;9.20;;;3.63;;
64667;SDS011;51077;42.716;23.344;2023-07-13T15:16:03;10.43;;;3.70;;
64667;SDS011;51077;42.716;23.344;2023-07-13T15:18:30;11.37;;;3.93;;
64667;SDS011;51077;42.716;23.344;2023-07-13T15:20:56;7.47;;;4.00;;
64667;SDS011;51077;42.716;23.344;2023-07-13T15:23:23;7.33;;;3.73;;
64667;SDS011;51077;42.716;23.344;2023-07-13T15:25:48;7.93;;;3.63;;